Time;durP1;ratioP1;P1;durP2;ratioP2;P2;SDS_P1;SDS_P2;PMS_P1;PMS_P2;Temp;Humidity;BMP_temperature;BMP_pressure;BME280_temperature;BME280_humidity;BME280_pressure;Samples;Min_cycle;Max_cycle;Signal;HPM_P1;HPM_P2
2023/09/14 00:01:42;;;;;;;9.13;2.50;;;14.90;99.90;;;;;;5031532;28;20177;-71
2023/09/14 00:04:07;;;;;;;7.68;2.13;;;14.90;99.90;;;;;;5031560;28;20181;-72
2023/09/14 00:06:33;;;;;;;3.40;1.83;;;14.90;99.90;;;;;;5031522;28;20185;-71
2023/09/14 00:08:59;;;;;;;4.45;2.25;;;14.90;99.90;;;;;;5031264;28;20292;-71
2023/09/14 00:11:25;;;;;;;3.63;2.00;;;15.00;99.90;;;;;;5031526;28;20213;-72
2023/09/14 00:13:50;;;;;;;6.50;2.40;;;14.90;99.90;;;;;;5030480;28;20632;-71
2023/09/14 00:16:16;;;;;;;6.82;2.38;;;;;;;;;;5013746;28;20170;-72
2023/09/14 00:18:42;;;;;;;4.75;2.28;;;14.80;99.90;;;;;;5030819;28;20173;-72
2023/09/14 00:21:07;;;;;;;5.10;2.67;;;14.80;99.90;;;;;;5030793;28;20620;-72
2023/09/14 00:23:33;;;;;;;7.22;2.28;;;14.70;99.90;;;;;;5030974;28;20272;-72
2023/09/14 00:25:59;;;;;;;7.72;2.40;;;14.70;99.90;;;;;;5030813;28;20224;-72
2023/09/14 00:28:25;;;;;;;6.10;2.20;;;;;;;;;;5030416;28;20178;-72
2023/09/14 00:30:52;;;;;;;3.75;2.30;;;14.70;99.90;;;;;;5030676;28;20225;-72
2023/09/14 00:33:18;;;;;;;4.38;2.20;;;14.60;99.90;;;;;;5030733;28;20251;-70
2023/09/14 00:35:47;;;;;;;6.22;2.33;;;14.60;99.90;;;;;;5045981;28;20695;-71
2023/09/14 00:38:13;;;;;;;4.82;2.55;;;14.60;99.90;;;;;;5033748;28;20176;-71
2023/09/14 00:40:39;;;;;;;6.10;2.53;;;14.60;99.90;;;;;;5050728;28;20223;-71
2023/09/14 00:43:04;;;;;;;6.60;2.75;;;14.50;99.90;;;;;;5042209;28;20206;-72
2023/09/14 00:45:32;;;;;;;3.03;1.92;;;14.60;99.90;;;;;;5030837;28;20177;-71
2023/09/14 00:47:59;;;;;;;6.07;2.80;;;14.50;99.90;;;;;;5030964;28;20239;-71
2023/09/14 00:50:30;;;;;;;4.95;2.67;;;14.50;99.90;;;;;;5030861;28;20669;-71
2023/09/14 00:53:00;;;;;;;4.55;2.25;;;14.50;99.90;;;;;;5030678;28;20177;-71
2023/09/14 00:55:27;;;;;;;6.15;2.85;;;14.60;99.90;;;;;;5041205;28;20177;-71
2023/09/14 00:57:54;;;;;;;5.82;2.78;;;14.50;99.90;;;;;;5050555;28;20211;-72
2023/09/14 01:00:20;;;;;;;4.60;2.85;;;14.50;99.90;;;;;;5050673;28;20172;-72
2023/09/14 01:02:46;;;;;;;5.47;2.15;;;14.50;99.90;;;;;;5050607;28;20169;-71
2023/09/14 01:05:15;;;;;;;7.20;2.83;;;14.40;99.90;;;;;;5050589;28;20172;-72
2023/09/14 01:07:41;;;;;;;3.95;2.13;;;14.40;99.90;;;;;;5050550;28;20177;-73
2023/09/14 01:10:09;;;;;;;4.35;2.40;;;14.40;99.90;;;;;;5050599;28;20213;-72
2023/09/14 01:12:35;;;;;;;7.35;2.70;;;14.40;99.90;;;;;;5050273;28;20169;-72
2023/09/14 01:15:10;;;;;;;3.30;2.20;;;14.20;99.90;;;;;;5050328;28;20192;-72
2023/09/14 01:17:54;;;;;;;4.35;2.20;;;14.30;99.90;;;;;;5050393;28;20169;-71
2023/09/14 01:20:35;;;;;;;4.30;2.10;;;14.30;99.90;;;;;;5050446;28;20179;-72
2023/09/14 01:23:24;;;;;;;4.85;2.17;;;14.40;99.90;;;;;;5050442;28;20578;-72
2023/09/14 01:25:52;;;;;;;5.70;2.03;;;14.30;99.90;;;;;;5021795;28;20337;-72
2023/09/14 01:28:18;;;;;;;4.38;2.22;;;14.20;99.90;;;;;;5046605;28;20174;-71
2023/09/14 01:30:44;;;;;;;8.02;2.20;;;14.20;99.90;;;;;;5034301;28;20213;-72
2023/09/14 01:33:17;;;;;;;3.97;2.05;;;14.20;99.90;;;;;;5034375;28;20306;-72
2023/09/14 01:36:01;;;;;;;8.20;2.25;;;14.10;99.90;;;;;;5034364;28;20174;-71
2023/09/14 01:38:29;;;;;;;6.10;2.30;;;14.10;99.90;;;;;;5034121;28;20174;-71
2023/09/14 01:40:56;;;;;;;8.00;2.10;;;14.10;99.90;;;;;;5014357;28;20201;-71
2023/09/14 01:43:22;;;;;;;7.00;2.03;;;14.10;99.90;;;;;;5024022;28;20632;-72
2023/09/14 01:45:48;;;;;;;6.22;2.25;;;14.10;99.90;;;;;;5033933;28;20232;-72
2023/09/14 01:48:19;;;;;;;5.15;2.53;;;14.20;99.90;;;;;;5033404;28;20256;-71
2023/09/14 01:50:44;;;;;;;4.68;2.13;;;14.10;99.90;;;;;;5033950;28;20210;-71
2023/09/14 01:53:11;;;;;;;4.10;1.95;;;14.20;99.90;;;;;;5015867;28;20189;-71
2023/09/14 01:55:37;;;;;;;4.15;2.28;;;14.10;99.90;;;;;;5052945;28;20195;-71
2023/09/14 01:58:02;;;;;;;4.45;2.67;;;14.10;99.90;;;;;;5048383;28;20693;-71
2023/09/14 02:00:28;;;;;;;4.00;2.45;;;14.10;99.90;;;;;;5034136;28;20199;-72
2023/09/14 02:02:53;;;;;;;3.92;2.20;;;14.10;99.90;;;;;;5033839;28;20560;-72
2023/09/14 02:05:19;;;;;;;4.90;2.20;;;14.10;99.90;;;;;;5033886;28;20172;-71
2023/09/14 02:07:46;;;;;;;5.25;2.30;;;14.10;99.90;;;;;;5033786;28;20189;-72
2023/09/14 02:10:12;;;;;;;3.05;2.03;;;14.10;99.90;;;;;;5038786;28;20236;-71
2023/09/14 02:12:37;;;;;;;3.90;2.17;;;14.10;99.90;;;;;;5053591;28;20252;-71
2023/09/14 02:15:04;;;;;;;4.05;2.00;;;14.10;99.90;;;;;;5053556;28;20165;-71
2023/09/14 02:17:30;;;;;;;6.30;2.90;;;14.10;99.90;;;;;;5053557;28;20162;-71
2023/09/14 02:19:58;;;;;;;4.07;2.42;;;14.10;99.90;;;;;;5053433;28;20280;-71
2023/09/14 02:22:23;;;;;;;5.72;2.10;;;14.00;99.90;;;;;;5036206;28;20182;-71
2023/09/14 02:24:49;;;;;;;6.40;2.85;;;14.10;99.90;;;;;;5033422;28;20182;-71
2023/09/14 02:27:15;;;;;;;5.57;2.25;;;14.10;99.90;;;;;;5033358;28;20714;-72
2023/09/14 02:29:41;;;;;;;3.83;1.80;;;14.10;99.90;;;;;;5015276;28;20687;-72
2023/09/14 02:32:08;;;;;;;4.95;2.00;;;14.10;99.90;;;;;;5033247;28;20266;-72
2023/09/14 02:34:34;;;;;;;5.93;2.20;;;14.10;99.90;;;;;;5033242;28;20570;-72
2023/09/14 02:37:00;;;;;;;2.97;1.98;;;;;;;;;;5032103;28;20293;-72
2023/09/14 02:39:25;;;;;;;3.58;1.92;;;14.10;99.90;;;;;;5015285;28;20178;-72
2023/09/14 02:41:51;;;;;;;5.22;1.70;;;14.10;99.90;;;;;;5033318;28;20181;-72
2023/09/14 02:44:16;;;;;;;2.72;1.90;;;14.10;99.90;;;;;;5033061;28;20583;-72
2023/09/14 02:46:42;;;;;;;7.43;2.20;;;14.10;99.90;;;;;;5033001;28;20181;-72
2023/09/14 02:49:08;;;;;;;6.22;2.03;;;14.10;99.90;;;;;;5033074;28;20532;-72
2023/09/14 02:51:33;;;;;;;6.70;2.28;;;14.10;99.90;;;;;;5032738;28;20304;-72
2023/09/14 02:53:59;;;;;;;4.38;1.92;;;14.10;99.90;;;;;;5033019;28;20257;-72
2023/09/14 02:56:24;;;;;;;6.88;2.15;;;14.20;99.90;;;;;;5032829;28;20216;-72
2023/09/14 02:58:53;;;;;;;7.05;2.40;;;14.20;99.90;;;;;;5032528;28;20189;-72
2023/09/14 03:01:20;;;;;;;3.05;1.95;;;14.30;99.90;;;;;;5031599;28;20209;-73
2023/09/14 03:03:46;;;;;;;8.27;2.08;;;14.20;99.90;;;;;;5032693;28;20162;-71
2023/09/14 03:06:12;;;;;;;4.20;2.33;;;14.20;99.90;;;;;;5032592;28;20710;-71
2023/09/14 03:08:38;;;;;;;3.70;2.30;;;;;;;;;;5032502;28;20182;-72
2023/09/14 03:11:04;;;;;;;4.22;1.70;;;14.10;99.90;;;;;;5032566;28;20219;-72
2023/09/14 03:13:30;;;;;;;4.13;1.80;;;14.10;99.90;;;;;;5032645;28;20645;-72
2023/09/14 03:15:58;;;;;;;3.83;1.90;;;14.00;99.90;;;;;;5032491;28;20178;-72
2023/09/14 03:18:23;;;;;;;3.85;2.25;;;16.50;99.90;;;;;;5032256;28;20202;-72
2023/09/14 03:20:51;;;;;;;7.47;1.98;;;14.00;99.90;;;;;;5032178;28;20186;-71
2023/09/14 03:23:17;;;;;;;4.82;1.60;;;14.00;99.90;;;;;;5032516;28;20162;-71
2023/09/14 03:25:43;;;;;;;3.28;1.80;;;14.00;99.90;;;;;;5032493;28;20276;-72
2023/09/14 03:28:09;;;;;;;8.70;1.95;;;;;;;;;;5032121;28;20170;-71
2023/09/14 03:30:35;;;;;;;5.18;1.90;;;13.90;99.90;;;;;;5032166;28;20205;-71
2023/09/14 03:33:01;;;;;;;4.00;1.80;;;13.70;99.90;;;;;;5032206;28;20201;-71
2023/09/14 03:35:26;;;;;;;4.50;1.80;;;13.80;99.90;;;;;;5032019;28;20621;-71
2023/09/14 03:37:52;;;;;;;3.88;1.85;;;13.80;99.90;;;;;;5032102;28;20166;-71
2023/09/14 03:40:18;;;;;;;2.55;1.80;;;13.80;99.90;;;;;;5032172;28;20177;-71
2023/09/14 03:42:43;;;;;;;3.85;1.90;;;13.80;99.90;;;;;;5031906;28;20205;-71
2023/09/14 03:45:09;;;;;;;5.35;1.83;;;13.80;99.90;;;;;;5031998;28;20170;-71
2023/09/14 03:47:35;;;;;;;5.18;1.95;;;13.70;99.90;;;;;;5031556;28;20656;-71
2023/09/14 03:50:01;;;;;;;4.60;1.80;;;13.70;99.90;;;;;;5031707;28;20755;-71
2023/09/14 03:52:26;;;;;;;4.40;1.98;;;13.80;99.90;;;;;;5031826;28;20177;-71
2023/09/14 03:54:53;;;;;;;3.80;1.85;;;13.80;99.90;;;;;;5031905;28;20198;-71
2023/09/14 03:57:19;;;;;;;3.47;1.60;;;13.70;99.90;;;;;;5031673;28;20182;-71
2023/09/14 03:59:46;;;;;;;4.45;1.55;;;13.90;99.90;;;;;;5030923;28;20648;-71
2023/09/14 04:02:12;;;;;;;4.95;1.60;;;13.70;99.90;;;;;;5031191;28;20170;-71
2023/09/14 04:04:41;;;;;;;3.80;2.13;;;13.70;99.90;;;;;;5031102;28;20224;-71
2023/09/14 04:07:07;;;;;;;3.33;1.65;;;13.70;99.90;;;;;;5048305;28;20173;-71
2023/09/14 04:09:33;;;;;;;4.72;2.00;;;13.70;99.90;;;;;;5037044;28;20255;-71
2023/09/14 04:11:59;;;;;;;2.95;1.80;;;13.70;99.90;;;;;;5048630;28;20205;-71
2023/09/14 04:14:24;;;;;;;4.60;2.10;;;13.70;99.90;;;;;;5047319;28;20208;-71
2023/09/14 04:16:51;;;;;;;3.17;1.95;;;13.60;99.90;;;;;;5031072;28;20641;-70
2023/09/14 04:19:17;;;;;;;4.72;1.73;;;13.60;99.90;;;;;;5013627;28;20178;-70
2023/09/14 04:21:43;;;;;;;4.90;1.70;;;13.60;99.90;;;;;;5031271;28;20269;-71
2023/09/14 04:24:09;;;;;;;2.83;1.80;;;13.60;99.90;;;;;;5031257;28;20253;-71
2023/09/14 04:26:35;;;;;;;3.05;1.90;;;;;;;;;;5017213;28;20693;-71
2023/09/14 04:29:00;;;;;;;6.45;2.00;;;13.50;99.90;;;;;;5037525;28;20196;-71
2023/09/14 04:31:26;;;;;;;4.97;1.80;;;13.60;99.90;;;;;;5030953;28;20205;-70
2023/09/14 04:33:52;;;;;;;3.97;1.60;;;13.60;99.90;;;;;;5030965;28;20659;-72
2023/09/14 04:36:18;;;;;;;4.25;1.67;;;13.60;99.90;;;;;;5030981;28;20177;-71
2023/09/14 04:38:43;;;;;;;4.35;1.50;;;13.60;99.90;;;;;;5030936;28;20181;-70
2023/09/14 04:41:09;;;;;;;5.05;1.70;;;13.50;99.90;;;;;;5031031;28;20174;-72
2023/09/14 04:43:35;;;;;;;6.75;1.75;;;13.50;99.90;;;;;;5031009;28;20210;-71
2023/09/14 04:46:04;;;;;;;3.17;1.67;;;13.40;99.90;;;;;;5030962;28;20261;-71
2023/09/14 04:48:29;;;;;;;4.05;1.67;;;13.40;99.90;;;;;;5030968;28;20165;-72
2023/09/14 04:50:56;;;;;;;3.75;1.70;;;13.40;99.90;;;;;;5030729;28;20688;-71
2023/09/14 04:53:26;;;;;;;4.30;1.80;;;13.30;99.90;;;;;;5030958;28;20166;-71
2023/09/14 04:55:51;;;;;;;3.50;1.67;;;13.30;99.90;;;;;;5030739;28;20317;-71
2023/09/14 04:58:17;;;;;;;3.75;1.73;;;13.10;99.90;;;;;;5030645;28;20672;-70
2023/09/14 05:00:43;;;;;;;2.78;1.65;;;13.10;99.90;;;;;;5030128;28;20843;-70
2023/09/14 05:03:08;;;;;;;5.20;2.15;;;13.10;99.90;;;;;;5030763;28;20182;-70
2023/09/14 05:05:34;;;;;;;6.38;1.92;;;13.10;99.90;;;;;;5030891;28;20220;-70
2023/09/14 05:08:00;;;;;;;5.60;1.92;;;13.20;99.90;;;;;;5030740;28;20256;-71
2023/09/14 05:10:28;;;;;;;5.97;1.95;;;13.20;99.90;;;;;;5030623;28;20209;-71
2023/09/14 05:12:54;;;;;;;6.25;2.03;;;13.20;99.90;;;;;;5030377;28;20660;-71
2023/09/14 05:15:21;;;;;;;2.97;1.50;;;13.30;99.90;;;;;;5030538;28;20185;-71
2023/09/14 05:17:46;;;;;;;4.30;1.70;;;13.30;99.90;;;;;;5029573;28;20174;-71
2023/09/14 05:20:14;;;;;;;3.63;1.60;;;13.40;99.90;;;;;;5030721;28;20169;-71
2023/09/14 05:22:40;;;;;;;3.38;1.40;;;13.80;99.90;;;;;;5030652;28;20192;-72
2023/09/14 05:25:07;;;;;;;2.47;1.13;;;13.60;99.90;;;;;;5030469;28;20166;-71
2023/09/14 05:27:38;;;;;;;2.72;1.65;;;13.70;99.90;;;;;;5030469;28;20298;-71
2023/09/14 05:30:05;;;;;;;5.90;1.65;;;13.60;99.90;;;;;;5030537;28;20323;-71
2023/09/14 05:32:30;;;;;;;6.05;1.70;;;13.80;99.90;;;;;;5030436;28;20316;-71
2023/09/14 05:34:56;;;;;;;5.10;1.38;;;13.80;99.90;;;;;;5030386;28;20260;-71
2023/09/14 05:37:21;;;;;;;3.83;1.40;;;13.90;99.90;;;;;;5030363;28;20185;-71
2023/09/14 05:39:48;;;;;;;4.20;1.77;;;13.90;99.90;;;;;;5030433;28;20170;-71
2023/09/14 05:42:13;;;;;;;5.43;1.77;;;13.90;99.90;;;;;;5030317;28;20675;-72
2023/09/14 05:44:39;;;;;;;5.40;1.85;;;14.00;99.90;;;;;;5030165;28;20317;-71
2023/09/14 05:47:05;;;;;;;3.60;1.65;;;14.00;99.90;;;;;;5030507;28;20166;-72
2023/09/14 05:49:31;;;;;;;6.38;1.88;;;13.90;99.90;;;;;;5030353;28;20278;-73
2023/09/14 05:51:57;;;;;;;5.40;1.63;;;13.80;99.90;;;;;;5012511;28;20213;-73
2023/09/14 05:54:23;;;;;;;4.40;1.45;;;13.90;99.90;;;;;;5030051;28;20170;-73
2023/09/14 05:56:49;;;;;;;5.95;2.22;;;13.80;99.90;;;;;;5030089;28;20166;-73
2023/09/14 05:59:15;;;;;;;3.55;1.50;;;13.90;99.90;;;;;;5030035;28;20178;-73
2023/09/14 06:01:42;;;;;;;5.18;1.67;;;13.80;99.90;;;;;;5030341;28;20182;-73
2023/09/14 06:04:07;;;;;;;5.35;1.63;;;13.80;99.90;;;;;;5030156;28;20174;-73
2023/09/14 06:06:33;;;;;;;2.72;1.40;;;13.80;99.90;;;;;;5030196;28;20277;-73
2023/09/14 06:08:59;;;;;;;3.63;1.55;;;13.90;99.90;;;;;;5030112;28;20216;-73
2023/09/14 06:11:27;;;;;;;3.67;1.45;;;13.90;99.90;;;;;;5031832;28;20752;-72
2023/09/14 06:13:53;;;;;;;4.65;1.60;;;13.90;99.90;;;;;;5016086;28;20174;-73
2023/09/14 06:16:19;;;;;;;4.38;1.60;;;14.00;99.90;;;;;;5033720;28;20207;-73
2023/09/14 06:18:46;;;;;;;4.40;1.70;;;14.10;99.90;;;;;;5033652;28;20256;-73
2023/09/14 06:21:12;;;;;;;4.60;1.88;;;14.80;99.90;;;;;;5016444;28;20270;-72
2023/09/14 06:23:38;;;;;;;3.03;1.48;;;14.20;99.90;;;;;;5033354;28;20173;-72
2023/09/14 06:26:04;;;;;;;3.38;1.42;;;14.30;99.90;;;;;;5033145;28;20214;-73
2023/09/14 06:28:29;;;;;;;4.38;1.60;;;14.40;99.90;;;;;;5033249;28;20166;-73
2023/09/14 06:30:55;;;;;;;5.50;1.20;;;14.40;99.90;;;;;;5015352;28;20653;-72
2023/09/14 06:33:21;;;;;;;2.53;1.30;;;14.50;99.90;;;;;;5033313;28;20629;-72
2023/09/14 06:35:47;;;;;;;2.88;1.48;;;14.60;99.90;;;;;;5033385;28;20184;-73
2023/09/14 06:38:12;;;;;;;4.07;1.60;;;14.70;99.90;;;;;;5032692;28;20637;-73
2023/09/14 06:40:38;;;;;;;5.45;1.52;;;14.70;99.90;;;;;;5015511;28;20649;-72
2023/09/14 06:43:04;;;;;;;4.68;1.95;;;14.70;99.90;;;;;;5033169;28;20200;-73
2023/09/14 06:45:30;;;;;;;2.63;1.05;;;14.70;99.90;;;;;;5033430;28;20170;-72
2023/09/14 06:47:56;;;;;;;3.85;1.63;;;14.70;99.90;;;;;;5033116;28;20166;-72
2023/09/14 06:50:22;;;;;;;7.88;1.80;;;14.70;99.90;;;;;;5032885;28;20548;-72
2023/09/14 06:52:47;;;;;;;6.20;2.10;;;14.80;99.90;;;;;;5032891;28;20240;-73
2023/09/14 06:55:13;;;;;;;3.35;1.55;;;14.90;99.90;;;;;;5015072;28;20277;-72
2023/09/14 06:57:39;;;;;;;4.97;1.70;;;14.90;99.90;;;;;;5032996;28;20628;-72
2023/09/14 07:00:13;;;;;;;3.85;1.80;;;14.80;99.90;;;;;;5032725;28;20181;-72
2023/09/14 07:02:40;;;;;;;7.38;1.58;;;14.90;99.90;;;;;;5032556;28;20580;-71
2023/09/14 07:05:05;;;;;;;3.00;1.50;;;15.00;99.90;;;;;;5013359;28;20174;-72
2023/09/14 07:07:31;;;;;;;3.45;1.25;;;15.20;99.90;;;;;;5012768;28;20514;-73
2023/09/14 07:09:57;;;;;;;2.55;1.50;;;15.30;99.90;;;;;;5012476;28;20507;-72
2023/09/14 07:12:22;;;;;;;4.55;1.48;;;15.30;99.90;;;;;;5012801;28;20187;-73
2023/09/14 07:14:48;;;;;;;3.85;1.58;;;15.40;99.90;;;;;;5012563;28;20163;-73
2023/09/14 07:17:14;;;;;;;5.60;1.70;;;15.50;99.90;;;;;;5012597;28;20660;-73
2023/09/14 07:19:39;;;;;;;6.68;1.85;;;15.50;99.90;;;;;;5022717;28;20174;-77
2023/09/14 07:22:05;;;;;;;2.90;1.60;;;15.50;99.90;;;;;;5030918;28;20542;-74
2023/09/14 07:24:32;;;;;;;2.30;1.48;;;15.60;99.90;;;;;;5031223;28;20213;-73
2023/09/14 07:26:59;;;;;;;5.30;1.67;;;15.60;99.90;;;;;;5027391;28;20780;-75
2023/09/14 07:29:24;;;;;;;2.38;1.33;;;17.50;99.90;;;;;;5035372;28;20236;-74
2023/09/14 07:31:50;;;;;;;5.05;1.70;;;15.60;99.90;;;;;;5032270;28;20213;-75
2023/09/14 07:34:16;;;;;;;3.70;1.40;;;15.80;99.90;;;;;;5031725;28;20178;-72
2023/09/14 07:36:43;;;;;;;5.40;1.60;;;15.70;99.90;;;;;;5031906;28;20706;-74
2023/09/14 07:39:09;;;;;;;4.88;1.67;;;15.80;99.90;;;;;;5031668;28;20185;-74
2023/09/14 07:41:34;;;;;;;6.75;1.40;;;15.90;99.90;;;;;;5031964;28;20181;-75
2023/09/14 07:44:00;;;;;;;4.25;1.48;;;16.00;99.90;;;;;;5032000;28;20162;-73
2023/09/14 07:46:25;;;;;;;5.00;1.60;;;16.20;99.90;;;;;;5031613;28;20185;-73
2023/09/14 07:48:51;;;;;;;1.98;1.20;;;16.40;99.90;;;;;;5031647;28;20201;-75
2023/09/14 07:51:16;;;;;;;4.03;1.35;;;16.80;99.90;;;;;;5031857;28;20205;-77
2023/09/14 07:53:42;;;;;;;3.88;1.35;;;16.90;99.90;;;;;;5031713;28;20742;-75
2023/09/14 07:56:07;;;;;;;4.95;1.27;;;17.00;99.90;;;;;;5031792;28;20181;-73
2023/09/14 07:58:33;;;;;;;4.28;1.38;;;17.00;99.90;;;;;;5031373;28;20170;-74
2023/09/14 08:00:59;;;;;;;6.40;1.60;;;17.10;99.90;;;;;;5031753;28;20533;-79
2023/09/14 08:03:26;;;;;;;5.68;1.67;;;17.30;99.90;;;;;;5031798;28;20161;-75
2023/09/14 08:05:52;;;;;;;3.80;1.38;;;17.50;99.90;;;;;;5031702;28;20204;-75
2023/09/14 08:08:18;;;;;;;7.07;1.80;;;17.80;99.90;;;;;;5030712;28;20203;-74
2023/09/14 08:10:55;;;;;;;3.35;1.30;;;17.80;84.40;;;;;;5031212;28;20213;-74
2023/09/14 08:13:21;;;;;;;4.70;1.63;;;18.00;1.00;;;;;;5031100;28;20174;-74
2023/09/14 08:15:47;;;;;;;10.00;1.60;;;18.10;1.00;;;;;;5031140;28;20316;-74
2023/09/14 08:18:13;;;;;;;4.55;1.30;;;18.20;1.00;;;;;;5032417;28;20166;-74
2023/09/14 08:20:42;;;;;;;4.13;1.23;;;18.60;99.90;;;;;;5031436;28;20177;-74
2023/09/14 08:23:09;;;;;;;6.65;1.30;;;18.60;99.90;;;;;;5031512;28;20213;-75
2023/09/14 08:25:35;;;;;;;6.75;1.58;;;;;;;;;;5031138;28;20217;-75
2023/09/14 08:28:01;;;;;;;5.22;1.50;;;21.50;1.00;;;;;;5030806;28;20660;-74
2023/09/14 08:30:27;;;;;;;6.50;1.60;;;20.90;1.00;;;;;;5031102;28;20236;-75
2023/09/14 08:32:52;;;;;;;4.43;1.58;;;21.70;1.00;;;;;;5031099;28;20199;-75
2023/09/14 08:35:28;;;;;;;6.65;1.60;;;22.80;1.00;;;;;;5030285;28;20490;-75
2023/09/14 08:37:54;;;;;;;3.15;1.20;;;21.90;18.90;;;;;;5031397;28;20181;-75
2023/09/14 08:40:21;;;;;;;3.28;1.40;;;21.30;1.00;;;;;;5031197;28;20228;-75
2023/09/14 08:42:50;;;;;;;3.40;1.63;;;20.70;1.00;;;;;;5031205;28;20613;-75
2023/09/14 08:45:22;;;;;;;2.95;1.13;;;20.40;1.00;;;;;;5031139;28;20185;-74
2023/09/14 08:47:49;;;;;;;3.45;1.40;;;20.10;61.70;;;;;;5012953;28;20542;-74
2023/09/14 08:50:17;;;;;;;6.13;1.50;;;20.30;45.00;;;;;;5030924;28;20177;-75
2023/09/14 08:52:44;;;;;;;3.97;1.48;;;20.30;1.00;;;;;;5030714;28;20181;-75
2023/09/14 08:55:11;;;;;;;3.92;1.45;;;20.50;1.00;;;;;;5030881;28;20209;-75
2023/09/14 08:57:39;;;;;;;5.82;1.50;;;20.40;99.90;;;;;;5030744;28;20185;-76
2023/09/14 09:00:14;;;;;;;3.97;1.33;;;20.20;1.00;;;;;;5030611;28;20174;-74
2023/09/14 09:02:44;;;;;;;5.22;1.50;;;20.00;1.00;;;;;;5030720;28;20654;-75
2023/09/14 09:05:12;;;;;;;4.50;1.20;;;20.00;1.00;;;;;;5031078;28;20173;-76
2023/09/14 09:07:40;;;;;;;3.58;1.30;;;19.90;1.00;;;;;;5030597;28;20192;-75
2023/09/14 09:10:25;;;;;;;2.72;1.38;;;20.70;1.00;;;;;;5030338;28;20207;-76
2023/09/14 09:12:59;;;;;;;5.47;1.52;;;19.90;1.00;;;;;;5015614;28;20180;-75
2023/09/14 09:15:26;;;;;;;3.50;1.23;;;19.60;1.00;;;;;;5030639;28;20645;-75
2023/09/14 09:18:02;;;;;;;4.95;1.33;;;19.50;39.30;;;;;;5030558;28;20188;-76
2023/09/14 09:20:27;;;;;;;4.75;1.40;;;19.50;99.90;;;;;;5030589;28;20165;-75
2023/09/14 09:22:57;;;;;;;8.50;1.20;;;19.50;99.90;;;;;;5030484;28;20180;-75
2023/09/14 09:25:23;;;;;;;3.58;1.50;;;19.70;99.90;;;;;;5030252;28;20222;-77
2023/09/14 09:28:00;;;;;;;3.75;1.40;;;19.80;1.00;;;;;;5012630;28;20247;-76
2023/09/14 09:30:29;;;;;;;4.18;1.42;;;19.90;1.00;;;;;;5030535;28;20205;-76
2023/09/14 09:32:56;;;;;;;3.72;1.20;;;20.10;1.00;;;;;;5030276;28;20289;-76
2023/09/14 09:35:24;;;;;;;6.93;1.52;;;20.20;99.90;;;;;;5030433;28;20208;-76
2023/09/14 09:37:50;;;;;;;3.97;1.33;;;20.40;1.00;;;;;;5030218;28;20174;-76
2023/09/14 09:40:18;;;;;;;9.30;1.45;;;20.60;1.00;;;;;;5030486;28;20528;-76
2023/09/14 09:42:45;;;;;;;4.57;1.40;;;20.50;99.90;;;;;;5030358;28;20178;-76
2023/09/14 09:45:11;;;;;;;4.53;1.10;;;20.40;99.90;;;;;;5030377;28;20169;-75
2023/09/14 09:47:38;;;;;;;4.28;1.30;;;20.50;99.90;;;;;;5034204;28;20185;-76
2023/09/14 09:50:08;;;;;;;5.45;1.40;;;20.50;99.90;;;;;;5034083;28;20174;-76
2023/09/14 09:52:35;;;;;;;3.65;1.58;;;20.70;99.90;;;;;;5016300;28;20185;-77
2023/09/14 09:55:03;;;;;;;4.53;1.48;;;20.50;99.90;;;;;;5034144;28;20178;-77
2023/09/14 09:57:32;;;;;;;2.55;1.55;;;20.50;99.90;;;;;;5034441;28;20256;-76
2023/09/14 09:59:58;;;;;;;4.95;1.63;;;20.60;99.90;;;;;;5033870;28;20636;-76
2023/09/14 10:02:31;;;;;;;4.22;1.52;;;20.60;1.00;;;;;;5033823;28;20184;-76
2023/09/14 10:04:58;;;;;;;7.20;2.00;;;20.70;1.00;;;;;;5033459;28;20169;-76
2023/09/14 10:07:24;;;;;;;5.35;2.20;;;20.30;1.00;;;;;;5033806;28;20633;-76
2023/09/14 10:09:53;;;;;;;3.15;1.98;;;20.40;1.00;;;;;;5015953;28;20538;-76
2023/09/14 10:12:24;;;;;;;4.03;1.85;;;20.30;1.00;;;;;;5033743;28;20201;-75
2023/09/14 10:14:54;;;;;;;3.97;1.70;;;20.30;99.90;;;;;;5033595;28;20228;-74
2023/09/14 10:17:24;;;;;;;4.05;1.88;;;20.30;99.90;;;;;;5033503;28;20178;-73
2023/09/14 10:19:51;;;;;;;4.40;1.98;;;20.50;1.00;;;;;;5033521;28;20174;-75
2023/09/14 10:22:20;;;;;;;3.20;1.77;;;19.90;1.00;;;;;;5033581;28;20616;-75
2023/09/14 10:24:47;;;;;;;6.00;2.40;;;20.90;99.90;;;;;;5033422;28;20170;-75
2023/09/14 10:27:15;;;;;;;7.35;2.15;;;21.00;99.90;;;;;;5033226;28;20561;-75
2023/09/14 10:29:42;;;;;;;7.07;2.10;;;21.30;99.90;;;;;;5015374;28;20220;-74
2023/09/14 10:32:11;;;;;;;5.05;1.80;;;21.00;99.90;;;;;;5033211;28;20292;-75
2023/09/14 10:34:41;;;;;;;4.30;1.80;;;20.90;1.00;;;;;;5033376;28;20204;-74
2023/09/14 10:37:09;;;;;;;4.53;1.98;;;20.90;1.00;;;;;;5032893;28;20243;-75
2023/09/14 10:39:37;;;;;;;4.55;1.67;;;21.20;1.00;;;;;;5033399;28;20277;-74
2023/09/14 10:42:04;;;;;;;4.65;1.50;;;21.30;96.80;;;;;;5031958;28;20178;-75
2023/09/14 10:44:30;;;;;;;3.10;1.35;;;21.00;1.00;;;;;;5032942;28;20211;-75
2023/09/14 10:46:59;;;;;;;5.93;1.80;;;21.20;99.90;;;;;;5032940;28;20170;-75
2023/09/14 10:49:28;;;;;;;5.43;1.80;;;21.70;90.70;;;;;;5031739;28;20184;-75
2023/09/14 10:51:55;;;;;;;4.38;1.65;;;22.30;99.90;;;;;;5032929;28;20218;-75
2023/09/14 10:54:31;;;;;;;6.32;1.80;;;23.00;1.00;;;;;;5031438;28;20169;-75
2023/09/14 10:57:01;;;;;;;3.00;1.70;;;22.90;1.00;;;;;;5030907;28;20206;-76
2023/09/14 10:59:55;;;;;;;3.85;1.67;;;22.80;1.00;;;;;;5032667;28;20178;-75
2023/09/14 11:02:45;;;;;;;4.35;1.60;;;22.90;1.00;;;;;;5032803;28;20226;-75
2023/09/14 11:05:25;;;;;;;4.57;1.67;;;22.50;1.00;;;;;;5032696;28;20183;-76
2023/09/14 11:08:04;;;;;;;5.55;1.73;;;22.10;99.90;;;;;;5032877;28;20186;-74
2023/09/14 11:10:30;;;;;;;3.08;1.73;;;22.00;99.90;;;;;;5032624;28;20201;-75
2023/09/14 11:13:20;;;;;;;2.75;1.33;;;21.70;1.00;;;;;;5032574;28;20174;-75
2023/09/14 11:15:47;;;;;;;7.85;2.00;;;21.30;1.00;;;;;;5032328;28;20177;-75
2023/09/14 11:18:17;;;;;;;4.82;1.70;;;21.30;1.00;;;;;;5032331;28;20166;-76
2023/09/14 11:20:44;;;;;;;3.60;1.55;;;21.40;1.00;;;;;;5014700;28;20181;-75
2023/09/14 11:23:10;;;;;;;9.05;1.88;;;20.90;99.90;;;;;;5014621;28;20551;-75
2023/09/14 11:25:41;;;;;;;4.70;1.55;;;20.80;1.00;;;;;;5032120;28;20237;-76
2023/09/14 11:28:27;;;;;;;4.47;1.40;;;20.80;99.90;;;;;;5031880;28;20170;-76
2023/09/14 11:30:53;;;;;;;3.35;1.48;;;20.80;99.90;;;;;;5031805;28;20256;-76
2023/09/14 11:33:20;;;;;;;2.38;1.30;;;20.70;99.90;;;;;;5032309;28;20632;-75
2023/09/14 11:35:47;;;;;;;5.70;1.67;;;20.50;99.90;;;;;;5032189;28;20182;-76
2023/09/14 11:38:19;;;;;;;5.07;1.67;;;20.60;1.00;;;;;;5032163;28;20166;-75
2023/09/14 11:40:45;;;;;;;4.75;1.85;;;20.70;1.00;;;;;;5031893;28;20656;-76
2023/09/14 11:43:20;;;;;;;3.65;1.63;;;20.80;1.00;;;;;;5032131;28;20257;-76
2023/09/14 11:45:47;;;;;;;6.53;2.10;;;20.70;1.00;;;;;;5032112;28;20177;-76
2023/09/14 11:48:14;;;;;;;6.03;1.90;;;20.70;72.90;;;;;;5014181;28;20170;-74
2023/09/14 11:50:46;;;;;;;5.00;1.75;;;20.90;99.90;;;;;;5031863;28;20194;-75
2023/09/14 11:53:17;;;;;;;6.53;1.65;;;21.00;99.90;;;;;;5031842;28;20170;-75
2023/09/14 11:55:44;;;;;;;5.65;1.50;;;21.20;99.90;;;;;;5031700;28;20285;-75
2023/09/14 11:58:11;;;;;;;4.53;1.45;;;21.30;99.90;;;;;;5031882;28;20205;-75
2023/09/14 12:00:41;;;;;;;3.40;1.55;;;21.50;1.00;;;;;;5031849;28;20169;-76
2023/09/14 12:03:07;;;;;;;3.33;1.50;;;21.40;1.00;;;;;;5031838;28;20212;-77
2023/09/14 12:05:33;;;;;;;3.47;1.30;;;21.50;99.40;;;;;;5031585;28;20173;-74
2023/09/14 12:08:10;;;;;;;3.20;1.52;;;21.10;1.00;;;;;;5031440;28;20177;-76
2023/09/14 12:10:36;;;;;;;3.92;1.67;;;21.30;64.70;;;;;;5031396;28;20225;-76
2023/09/14 12:13:16;;;;;;;5.68;1.55;;;21.40;1.00;;;;;;5013653;28;20184;-77
2023/09/14 12:15:43;;;;;;;1.80;1.33;;;21.10;99.90;;;;;;5031293;28;20181;-77
2023/09/14 12:18:10;;;;;;;2.78;1.20;;;21.10;99.90;;;;;;5030623;28;20324;-76
2023/09/14 12:20:41;;;;;;;3.67;1.20;;;21.10;99.90;;;;;;5030361;28;20708;-76
2023/09/14 12:23:09;;;;;;;3.17;1.40;;;21.10;99.90;;;;;;5030831;28;20169;-75
2023/09/14 12:25:36;;;;;;;3.03;1.23;;;21.10;99.90;;;;;;5037644;28;20692;-75
2023/09/14 12:28:04;;;;;;;3.60;1.63;;;21.50;1.30;;;;;;5030841;28;20167;-75
2023/09/14 12:30:31;;;;;;;4.45;1.45;;;21.40;1.00;;;;;;5031020;28;20558;-75
2023/09/14 12:32:58;;;;;;;4.15;1.25;;;21.60;1.00;;;;;;5030604;28;20178;-75
2023/09/14 12:35:24;;;;;;;2.58;1.30;;;19.30;1.00;;;;;;5027193;28;20227;-76
2023/09/14 12:37:53;;;;;;;4.38;1.63;;;21.50;1.00;;;;;;5030882;28;20699;-76
2023/09/14 12:40:20;;;;;;;3.35;1.33;;;21.50;1.00;;;;;;5030937;28;20170;-75
2023/09/14 12:42:45;;;;;;;5.60;1.48;;;21.40;1.00;;;;;;5013246;28;20182;-76
2023/09/14 12:45:16;;;;;;;3.53;1.08;;;21.20;66.10;;;;;;5030622;28;20181;-74
2023/09/14 12:47:44;;;;;;;3.25;1.63;;;21.20;91.10;;;;;;5031062;28;20182;-74
2023/09/14 12:50:15;;;;;;;3.97;1.58;;;21.10;99.90;;;;;;5030865;28;20166;-77
2023/09/14 12:52:45;;;;;;;2.70;1.27;;;21.20;99.90;;;;;;5012943;28;20185;-75